sensor_id;sensor_type;location;lat;lon;timestamp;P1;durP1;ratioP1;P2;durP2;ratioP2
70420;SDS011;57848;51.938;15.520;2022-07-23T00:01:28;11.32;;;5.82;;
70420;SDS011;57848;51.938;15.520;2022-07-23T00:03:54;8.87;;;5.83;;
70420;SDS011;57848;51.938;15.520;2022-07-23T00:06:20;11.07;;;6.32;;
70420;SDS011;57848;51.938;15.520;2022-07-23T00:08:45;11.85;;;6.43;;
70420;SDS011;57848;51.938;15.520;2022-07-23T00:11:11;10.13;;;6.10;;
70420;SDS011;57848;51.938;15.520;2022-07-23T00:13:36;11.13;;;6.87;;
70420;SDS011;57848;51.938;15.520;2022-07-23T00:16:02;11.80;;;5.57;;
70420;SDS011;57848;51.938;15.520;2022-07-23T00:18:28;10.75;;;6.63;;
70420;SDS011;57848;51.938;15.520;2022-07-23T00:20:53;13.20;;;5.87;;
70420;SDS011;57848;51.938;15.520;2022-07-23T00:23:18;11.10;;;6.40;;
70420;SDS011;57848;51.938;15.520;2022-07-23T00:25:44;11.17;;;6.03;;
70420;SDS011;57848;51.938;15.520;2022-07-23T00:28:12;10.52;;;6.32;;
70420;SDS011;57848;51.938;15.520;2022-07-23T00:30:37;10.25;;;5.75;;
70420;SDS011;57848;51.938;15.520;2022-07-23T00:33:04;9.67;;;5.97;;
70420;SDS011;57848;51.938;15.520;2022-07-23T00:35:32;10.93;;;5.60;;
70420;SDS011;57848;51.938;15.520;2022-07-23T00:37:59;10.90;;;5.83;;
70420;SDS011;57848;51.938;15.520;2022-07-23T00:40:26;14.93;;;5.75;;
70420;SDS011;57848;51.938;15.520;2022-07-23T00:42:52;9.85;;;5.47;;
70420;SDS011;57848;51.938;15.520;2022-07-23T00:45:17;11.93;;;5.87;;
70420;SDS011;57848;51.938;15.520;2022-07-23T00:47:43;11.77;;;6.03;;
70420;SDS011;57848;51.938;15.520;2022-07-23T00:50:09;15.13;;;5.67;;
70420;SDS011;57848;51.938;15.520;2022-07-23T00:52:35;8.70;;;5.25;;
70420;SDS011;57848;51.938;15.520;2022-07-23T00:55:02;11.20;;;5.63;;
70420;SDS011;57848;51.938;15.520;2022-07-23T00:57:28;9.60;;;5.43;;
70420;SDS011;57848;51.938;15.520;2022-07-23T00:59:53;8.60;;;5.53;;
70420;SDS011;57848;51.938;15.520;2022-07-23T01:02:19;9.27;;;5.13;;
70420;SDS011;57848;51.938;15.520;2022-07-23T01:04:44;10.13;;;5.50;;
70420;SDS011;57848;51.938;15.520;2022-07-23T01:07:10;9.10;;;5.38;;
70420;SDS011;57848;51.938;15.520;2022-07-23T01:09:36;10.47;;;5.50;;
70420;SDS011;57848;51.938;15.520;2022-07-23T01:12:02;11.68;;;5.68;;
70420;SDS011;57848;51.938;15.520;2022-07-23T01:14:28;10.93;;;5.77;;
70420;SDS011;57848;51.938;15.520;2022-07-23T01:16:53;9.90;;;5.60;;
70420;SDS011;57848;51.938;15.520;2022-07-23T01:19:19;9.73;;;5.95;;
70420;SDS011;57848;51.938;15.520;2022-07-23T01:21:45;9.87;;;5.43;;
70420;SDS011;57848;51.938;15.520;2022-07-23T01:24:13;10.10;;;5.95;;
70420;SDS011;57848;51.938;15.520;2022-07-23T01:26:47;10.30;;;5.50;;
70420;SDS011;57848;51.938;15.520;2022-07-23T01:29:13;8.75;;;5.18;;
70420;SDS011;57848;51.938;15.520;2022-07-23T01:31:40;11.05;;;5.80;;
70420;SDS011;57848;51.938;15.520;2022-07-23T01:34:06;14.38;;;6.07;;
70420;SDS011;57848;51.938;15.520;2022-07-23T01:36:32;11.20;;;5.80;;
70420;SDS011;57848;51.938;15.520;2022-07-23T01:38:58;10.53;;;5.57;;
70420;SDS011;57848;51.938;15.520;2022-07-23T01:41:24;11.82;;;5.60;;
70420;SDS011;57848;51.938;15.520;2022-07-23T01:43:49;10.73;;;5.50;;
70420;SDS011;57848;51.938;15.520;2022-07-23T01:46:15;10.57;;;6.10;;
70420;SDS011;57848;51.938;15.520;2022-07-23T01:48:45;9.82;;;6.10;;
70420;SDS011;57848;51.938;15.520;2022-07-23T01:51:23;12.63;;;5.85;;
70420;SDS011;57848;51.938;15.520;2022-07-23T01:53:58;11.13;;;5.70;;
70420;SDS011;57848;51.938;15.520;2022-07-23T01:56:23;9.77;;;5.90;;
70420;SDS011;57848;51.938;15.520;2022-07-23T01:58:48;13.30;;;5.90;;
70420;SDS011;57848;51.938;15.520;2022-07-23T02:01:14;12.93;;;5.88;;
70420;SDS011;57848;51.938;15.520;2022-07-23T02:03:39;9.60;;;5.70;;
70420;SDS011;57848;51.938;15.520;2022-07-23T02:06:05;9.70;;;5.77;;
70420;SDS011;57848;51.938;15.520;2022-07-23T02:08:30;9.87;;;6.07;;
70420;SDS011;57848;51.938;15.520;2022-07-23T02:10:56;8.97;;;5.40;;
70420;SDS011;57848;51.938;15.520;2022-07-23T02:13:21;10.07;;;6.22;;
70420;SDS011;57848;51.938;15.520;2022-07-23T02:15:47;10.23;;;6.03;;
70420;SDS011;57848;51.938;15.520;2022-07-23T02:18:13;11.65;;;6.20;;
70420;SDS011;57848;51.938;15.520;2022-07-23T02:20:39;12.97;;;6.23;;
70420;SDS011;57848;51.938;15.520;2022-07-23T02:23:06;10.60;;;6.65;;
70420;SDS011;57848;51.938;15.520;2022-07-23T02:25:32;11.53;;;6.20;;
70420;SDS011;57848;51.938;15.520;2022-07-23T02:28:00;10.13;;;6.05;;
70420;SDS011;57848;51.938;15.520;2022-07-23T02:30:25;12.90;;;6.05;;
70420;SDS011;57848;51.938;15.520;2022-07-23T02:32:51;9.90;;;5.90;;
70420;SDS011;57848;51.938;15.520;2022-07-23T02:35:16;11.83;;;6.50;;
70420;SDS011;57848;51.938;15.520;2022-07-23T02:37:42;10.63;;;5.90;;
70420;SDS011;57848;51.938;15.520;2022-07-23T02:40:07;11.00;;;6.07;;
70420;SDS011;57848;51.938;15.520;2022-07-23T02:42:36;10.68;;;6.25;;
70420;SDS011;57848;51.938;15.520;2022-07-23T02:45:03;10.13;;;6.30;;
70420;SDS011;57848;51.938;15.520;2022-07-23T02:47:29;10.90;;;6.47;;
70420;SDS011;57848;51.938;15.520;2022-07-23T02:49:56;15.10;;;6.68;;
70420;SDS011;57848;51.938;15.520;2022-07-23T02:52:21;9.93;;;6.30;;
70420;SDS011;57848;51.938;15.520;2022-07-23T02:54:47;10.85;;;6.28;;
70420;SDS011;57848;51.938;15.520;2022-07-23T02:57:15;13.40;;;6.83;;
70420;SDS011;57848;51.938;15.520;2022-07-23T02:59:41;12.00;;;7.28;;
70420;SDS011;57848;51.938;15.520;2022-07-23T03:02:06;10.93;;;6.53;;
70420;SDS011;57848;51.938;15.520;2022-07-23T03:04:32;14.38;;;7.18;;
70420;SDS011;57848;51.938;15.520;2022-07-23T03:06:57;13.77;;;7.13;;
70420;SDS011;57848;51.938;15.520;2022-07-23T03:09:24;11.70;;;6.27;;
70420;SDS011;57848;51.938;15.520;2022-07-23T03:11:51;11.75;;;6.72;;
70420;SDS011;57848;51.938;15.520;2022-07-23T03:14:18;14.32;;;6.28;;
70420;SDS011;57848;51.938;15.520;2022-07-23T03:16:43;12.53;;;6.77;;
70420;SDS011;57848;51.938;15.520;2022-07-23T03:19:08;12.83;;;6.60;;
70420;SDS011;57848;51.938;15.520;2022-07-23T03:21:34;11.50;;;7.00;;
70420;SDS011;57848;51.938;15.520;2022-07-23T03:24:01;13.20;;;6.57;;
70420;SDS011;57848;51.938;15.520;2022-07-23T03:26:26;12.23;;;7.00;;
70420;SDS011;57848;51.938;15.520;2022-07-23T03:28:52;12.60;;;6.50;;
70420;SDS011;57848;51.938;15.520;2022-07-23T03:31:18;13.60;;;6.50;;
70420;SDS011;57848;51.938;15.520;2022-07-23T03:33:43;12.80;;;6.77;;
70420;SDS011;57848;51.938;15.520;2022-07-23T03:36:08;11.30;;;6.50;;
70420;SDS011;57848;51.938;15.520;2022-07-23T03:38:37;10.93;;;6.88;;
70420;SDS011;57848;51.938;15.520;2022-07-23T03:41:03;11.57;;;7.17;;
70420;SDS011;57848;51.938;15.520;2022-07-23T03:43:28;12.03;;;7.13;;
70420;SDS011;57848;51.938;15.520;2022-07-23T03:45:53;15.00;;;7.70;;
70420;SDS011;57848;51.938;15.520;2022-07-23T03:48:19;13.10;;;7.77;;
70420;SDS011;57848;51.938;15.520;2022-07-23T03:50:44;16.70;;;8.10;;
70420;SDS011;57848;51.938;15.520;2022-07-23T03:53:09;12.53;;;7.27;;
70420;SDS011;57848;51.938;15.520;2022-07-23T03:55:35;10.83;;;7.20;;
70420;SDS011;57848;51.938;15.520;2022-07-23T03:58:00;12.43;;;7.53;;
70420;SDS011;57848;51.938;15.520;2022-07-23T04:00:26;11.23;;;7.00;;
70420;SDS011;57848;51.938;15.520;2022-07-23T04:02:51;17.03;;;7.23;;
70420;SDS011;57848;51.938;15.520;2022-07-23T04:05:17;11.00;;;6.33;;
70420;SDS011;57848;51.938;15.520;2022-07-23T04:07:43;11.48;;;6.20;;
70420;SDS011;57848;51.938;15.520;2022-07-23T04:10:09;11.23;;;6.30;;
70420;SDS011;57848;51.938;15.520;2022-07-23T04:12:34;10.65;;;6.22;;
70420;SDS011;57848;51.938;15.520;2022-07-23T04:15:01;11.37;;;6.00;;
70420;SDS011;57848;51.938;15.520;2022-07-23T04:17:27;10.13;;;5.88;;
70420;SDS011;57848;51.938;15.520;2022-07-23T04:19:53;10.18;;;5.60;;
70420;SDS011;57848;51.938;15.520;2022-07-23T04:22:21;10.23;;;6.10;;
70420;SDS011;57848;51.938;15.520;2022-07-23T04:24:47;10.75;;;5.60;;
70420;SDS011;57848;51.938;15.520;2022-07-23T04:27:12;12.23;;;6.07;;
70420;SDS011;57848;51.938;15.520;2022-07-23T04:29:38;10.90;;;6.03;;
70420;SDS011;57848;51.938;15.520;2022-07-23T04:32:04;12.13;;;6.43;;
70420;SDS011;57848;51.938;15.520;2022-07-23T04:34:30;9.68;;;5.45;;
70420;SDS011;57848;51.938;15.520;2022-07-23T04:36:55;10.67;;;5.50;;
70420;SDS011;57848;51.938;15.520;2022-07-23T04:39:21;10.50;;;5.60;;
70420;SDS011;57848;51.938;15.520;2022-07-23T04:41:46;11.00;;;5.90;;
70420;SDS011;57848;51.938;15.520;2022-07-23T04:44:12;9.25;;;6.07;;
70420;SDS011;57848;51.938;15.520;2022-07-23T04:46:38;10.07;;;5.57;;
70420;SDS011;57848;51.938;15.520;2022-07-23T04:49:05;9.82;;;5.88;;
70420;SDS011;57848;51.938;15.520;2022-07-23T04:51:31;12.48;;;5.22;;
70420;SDS011;57848;51.938;15.520;2022-07-23T04:53:56;10.53;;;5.37;;
70420;SDS011;57848;51.938;15.520;2022-07-23T04:56:21;11.30;;;5.17;;
70420;SDS011;57848;51.938;15.520;2022-07-23T04:58:47;10.17;;;5.40;;
70420;SDS011;57848;51.938;15.520;2022-07-23T05:01:12;9.13;;;5.00;;
70420;SDS011;57848;51.938;15.520;2022-07-23T05:03:38;8.87;;;5.00;;
70420;SDS011;57848;51.938;15.520;2022-07-23T05:06:03;8.50;;;4.83;;
70420;SDS011;57848;51.938;15.520;2022-07-23T05:08:29;9.10;;;4.80;;
70420;SDS011;57848;51.938;15.520;2022-07-23T05:10:57;8.45;;;4.70;;
70420;SDS011;57848;51.938;15.520;2022-07-23T05:13:22;11.27;;;4.57;;
70420;SDS011;57848;51.938;15.520;2022-07-23T05:15:50;7.70;;;4.70;;
70420;SDS011;57848;51.938;15.520;2022-07-23T05:18:15;10.40;;;5.10;;
70420;SDS011;57848;51.938;15.520;2022-07-23T05:20:41;8.97;;;4.87;;
70420;SDS011;57848;51.938;15.520;2022-07-23T05:23:07;9.45;;;5.07;;
70420;SDS011;57848;51.938;15.520;2022-07-23T05:25:32;9.43;;;4.45;;
70420;SDS011;57848;51.938;15.520;2022-07-23T05:27:59;9.60;;;4.57;;
70420;SDS011;57848;51.938;15.520;2022-07-23T05:30:25;9.65;;;4.78;;
70420;SDS011;57848;51.938;15.520;2022-07-23T05:32:55;7.43;;;4.22;;
70420;SDS011;57848;51.938;15.520;2022-07-23T05:35:20;8.50;;;4.73;;
70420;SDS011;57848;51.938;15.520;2022-07-23T05:38:00;8.47;;;4.67;;
70420;SDS011;57848;51.938;15.520;2022-07-23T05:40:25;9.48;;;5.28;;
70420;SDS011;57848;51.938;15.520;2022-07-23T05:42:51;8.80;;;4.47;;
70420;SDS011;57848;51.938;15.520;2022-07-23T05:45:16;8.93;;;4.97;;
70420;SDS011;57848;51.938;15.520;2022-07-23T05:47:45;7.95;;;4.45;;
70420;SDS011;57848;51.938;15.520;2022-07-23T05:50:15;8.50;;;4.78;;
70420;SDS011;57848;51.938;15.520;2022-07-23T05:52:45;9.75;;;4.57;;
70420;SDS011;57848;51.938;15.520;2022-07-23T05:55:29;8.83;;;4.43;;
70420;SDS011;57848;51.938;15.520;2022-07-23T05:57:57;8.15;;;4.75;;
70420;SDS011;57848;51.938;15.520;2022-07-23T06:00:24;8.52;;;4.82;;
70420;SDS011;57848;51.938;15.520;2022-07-23T06:02:50;7.82;;;4.50;;
70420;SDS011;57848;51.938;15.520;2022-07-23T06:05:16;7.93;;;4.65;;
70420;SDS011;57848;51.938;15.520;2022-07-23T06:07:43;9.03;;;4.57;;
70420;SDS011;57848;51.938;15.520;2022-07-23T06:10:08;8.63;;;4.40;;
70420;SDS011;57848;51.938;15.520;2022-07-23T06:12:35;9.00;;;4.50;;
70420;SDS011;57848;51.938;15.520;2022-07-23T06:15:00;7.60;;;4.50;;
70420;SDS011;57848;51.938;15.520;2022-07-23T06:17:26;8.03;;;4.70;;
70420;SDS011;57848;51.938;15.520;2022-07-23T06:19:52;7.53;;;4.30;;
70420;SDS011;57848;51.938;15.520;2022-07-23T06:22:17;8.40;;;4.67;;
70420;SDS011;57848;51.938;15.520;2022-07-23T06:24:43;9.27;;;4.60;;
70420;SDS011;57848;51.938;15.520;2022-07-23T06:27:08;10.27;;;4.60;;
70420;SDS011;57848;51.938;15.520;2022-07-23T06:29:34;8.03;;;4.50;;
70420;SDS011;57848;51.938;15.520;2022-07-23T06:31:59;9.00;;;5.27;;
70420;SDS011;57848;51.938;15.520;2022-07-23T06:34:24;8.23;;;5.07;;
70420;SDS011;57848;51.938;15.520;2022-07-23T06:36:50;13.00;;;5.20;;
70420;SDS011;57848;51.938;15.520;2022-07-23T06:39:15;9.40;;;5.73;;
70420;SDS011;57848;51.938;15.520;2022-07-23T06:41:44;9.50;;;5.50;;
70420;SDS011;57848;51.938;15.520;2022-07-23T06:44:10;9.10;;;5.50;;
70420;SDS011;57848;51.938;15.520;2022-07-23T06:46:35;9.57;;;5.73;;
70420;SDS011;57848;51.938;15.520;2022-07-23T06:49:00;11.50;;;5.90;;
70420;SDS011;57848;51.938;15.520;2022-07-23T06:51:27;15.15;;;6.90;;
70420;SDS011;57848;51.938;15.520;2022-07-23T06:53:53;12.83;;;6.93;;
70420;SDS011;57848;51.938;15.520;2022-07-23T06:56:19;16.95;;;7.45;;
70420;SDS011;57848;51.938;15.520;2022-07-23T06:58:45;12.57;;;7.70;;
70420;SDS011;57848;51.938;15.520;2022-07-23T07:01:10;15.03;;;7.60;;
70420;SDS011;57848;51.938;15.520;2022-07-23T07:03:35;12.65;;;7.55;;
70420;SDS011;57848;51.938;15.520;2022-07-23T07:06:01;13.93;;;7.43;;
70420;SDS011;57848;51.938;15.520;2022-07-23T07:08:27;13.68;;;8.10;;
70420;SDS011;57848;51.938;15.520;2022-07-23T07:10:52;15.07;;;9.27;;
70420;SDS011;57848;51.938;15.520;2022-07-23T07:13:18;15.93;;;8.97;;
70420;SDS011;57848;51.938;15.520;2022-07-23T07:15:43;15.37;;;8.80;;
70420;SDS011;57848;51.938;15.520;2022-07-23T07:18:08;16.67;;;10.17;;
70420;SDS011;57848;51.938;15.520;2022-07-23T07:20:34;15.30;;;8.83;;
70420;SDS011;57848;51.938;15.520;2022-07-23T07:22:59;14.33;;;8.90;;
70420;SDS011;57848;51.938;15.520;2022-07-23T07:25:24;15.40;;;9.00;;
70420;SDS011;57848;51.938;15.520;2022-07-23T07:27:50;14.40;;;8.93;;
70420;SDS011;57848;51.938;15.520;2022-07-23T07:30:15;14.57;;;9.30;;
70420;SDS011;57848;51.938;15.520;2022-07-23T07:32:41;13.80;;;9.30;;
70420;SDS011;57848;51.938;15.520;2022-07-23T07:35:06;15.50;;;9.73;;
70420;SDS011;57848;51.938;15.520;2022-07-23T07:37:32;14.53;;;9.17;;
70420;SDS011;57848;51.938;15.520;2022-07-23T07:39:58;15.88;;;10.57;;
70420;SDS011;57848;51.938;15.520;2022-07-23T07:42:23;16.30;;;10.00;;
70420;SDS011;57848;51.938;15.520;2022-07-23T07:44:49;16.57;;;10.23;;
70420;SDS011;57848;51.938;15.520;2022-07-23T07:47:14;14.40;;;10.67;;
70420;SDS011;57848;51.938;15.520;2022-07-23T07:49:43;15.88;;;11.15;;
70420;SDS011;57848;51.938;15.520;2022-07-23T07:52:09;16.88;;;10.82;;
70420;SDS011;57848;51.938;15.520;2022-07-23T07:54:34;16.55;;;10.43;;
70420;SDS011;57848;51.938;15.520;2022-07-23T07:57:00;17.43;;;11.70;;
70420;SDS011;57848;51.938;15.520;2022-07-23T07:59:25;16.87;;;11.50;;
70420;SDS011;57848;51.938;15.520;2022-07-23T08:01:51;18.67;;;11.75;;
70420;SDS011;57848;51.938;15.520;2022-07-23T08:04:16;19.90;;;11.80;;
70420;SDS011;57848;51.938;15.520;2022-07-23T08:06:41;27.83;;;12.57;;
70420;SDS011;57848;51.938;15.520;2022-07-23T08:09:07;17.13;;;11.80;;
70420;SDS011;57848;51.938;15.520;2022-07-23T08:11:32;18.40;;;12.40;;
70420;SDS011;57848;51.938;15.520;2022-07-23T08:13:57;18.53;;;12.73;;
70420;SDS011;57848;51.938;15.520;2022-07-23T08:16:23;17.07;;;11.57;;
70420;SDS011;57848;51.938;15.520;2022-07-23T08:18:48;17.17;;;12.20;;
70420;SDS011;57848;51.938;15.520;2022-07-23T08:21:13;17.77;;;11.30;;
70420;SDS011;57848;51.938;15.520;2022-07-23T08:23:39;15.73;;;11.70;;
70420;SDS011;57848;51.938;15.520;2022-07-23T08:26:04;15.10;;;11.13;;
70420;SDS011;57848;51.938;15.520;2022-07-23T08:28:29;16.40;;;10.80;;
70420;SDS011;57848;51.938;15.520;2022-07-23T08:30:58;15.43;;;11.13;;
70420;SDS011;57848;51.938;15.520;2022-07-23T08:33:24;15.07;;;11.00;;
70420;SDS011;57848;51.938;15.520;2022-07-23T08:35:50;16.17;;;10.60;;
70420;SDS011;57848;51.938;15.520;2022-07-23T08:38:18;16.10;;;10.52;;
70420;SDS011;57848;51.938;15.520;2022-07-23T08:40:48;16.48;;;10.13;;
70420;SDS011;57848;51.938;15.520;2022-07-23T08:43:19;15.60;;;9.90;;
70420;SDS011;57848;51.938;15.520;2022-07-23T08:45:47;16.77;;;10.10;;
70420;SDS011;57848;51.938;15.520;2022-07-23T08:48:15;13.75;;;9.18;;
70420;SDS011;57848;51.938;15.520;2022-07-23T08:50:46;16.55;;;9.57;;
70420;SDS011;57848;51.938;15.520;2022-07-23T08:53:14;14.77;;;9.23;;
70420;SDS011;57848;51.938;15.520;2022-07-23T08:55:43;13.23;;;9.10;;
70420;SDS011;57848;51.938;15.520;2022-07-23T08:58:09;13.23;;;8.80;;
70420;SDS011;57848;51.938;15.520;2022-07-23T09:00:35;12.25;;;8.45;;
70420;SDS011;57848;51.938;15.520;2022-07-23T09:03:00;12.97;;;8.37;;
70420;SDS011;57848;51.938;15.520;2022-07-23T09:05:25;15.00;;;9.03;;
70420;SDS011;57848;51.938;15.520;2022-07-23T09:13:25;12.35;;;8.18;;
70420;SDS011;57848;51.938;15.520;2022-07-23T09:15:51;11.10;;;6.75;;
70420;SDS011;57848;51.938;15.520;2022-07-23T09:18:17;13.03;;;7.40;;
70420;SDS011;57848;51.938;15.520;2022-07-23T09:20:43;13.38;;;7.38;;
70420;SDS011;57848;51.938;15.520;2022-07-23T09:23:09;9.57;;;6.53;;
70420;SDS011;57848;51.938;15.520;2022-07-23T09:25:34;12.13;;;7.47;;
70420;SDS011;57848;51.938;15.520;2022-07-23T09:28:00;10.70;;;5.80;;
70420;SDS011;57848;51.938;15.520;2022-07-23T09:30:29;12.65;;;6.63;;
70420;SDS011;57848;51.938;15.520;2022-07-23T09:33:15;9.43;;;6.00;;
70420;SDS011;57848;51.938;15.520;2022-07-23T09:35:53;12.32;;;6.03;;
70420;SDS011;57848;51.938;15.520;2022-07-23T09:38:20;10.02;;;5.60;;
70420;SDS011;57848;51.938;15.520;2022-07-23T09:41:04;9.20;;;5.70;;
70420;SDS011;57848;51.938;15.520;2022-07-23T09:43:31;9.60;;;6.15;;
70420;SDS011;57848;51.938;15.520;2022-07-23T09:46:16;10.27;;;5.83;;
70420;SDS011;57848;51.938;15.520;2022-07-23T09:48:55;11.25;;;6.90;;
70420;SDS011;57848;51.938;15.520;2022-07-23T09:51:22;9.77;;;6.63;;
70420;SDS011;57848;51.938;15.520;2022-07-23T09:53:51;11.45;;;6.93;;
70420;SDS011;57848;51.938;15.520;2022-07-23T09:56:17;11.43;;;6.43;;
70420;SDS011;57848;51.938;15.520;2022-07-23T09:58:45;9.70;;;6.03;;
70420;SDS011;57848;51.938;15.520;2022-07-23T10:01:15;9.68;;;6.45;;
70420;SDS011;57848;51.938;15.520;2022-07-23T10:03:41;10.85;;;6.72;;
70420;SDS011;57848;51.938;15.520;2022-07-23T10:06:30;10.80;;;7.32;;
70420;SDS011;57848;51.938;15.520;2022-07-23T10:09:15;12.43;;;7.60;;
70420;SDS011;57848;51.938;15.520;2022-07-23T10:12:01;11.95;;;7.63;;
70420;SDS011;57848;51.938;15.520;2022-07-23T10:14:52;12.27;;;8.75;;
70420;SDS011;57848;51.938;15.520;2022-07-23T10:17:18;12.07;;;8.63;;
70420;SDS011;57848;51.938;15.520;2022-07-23T10:19:44;11.85;;;8.07;;
70420;SDS011;57848;51.938;15.520;2022-07-23T10:22:11;13.88;;;7.75;;
70420;SDS011;57848;51.938;15.520;2022-07-23T10:30:25;10.95;;;7.50;;
70420;SDS011;57848;51.938;15.520;2022-07-23T10:32:56;11.13;;;6.70;;
70420;SDS011;57848;51.938;15.520;2022-07-23T10:35:28;10.20;;;6.43;;
70420;SDS011;57848;51.938;15.520;2022-07-23T10:38:18;11.13;;;6.23;;
70420;SDS011;57848;51.938;15.520;2022-07-23T10:40:55;9.50;;;5.50;;
70420;SDS011;57848;51.938;15.520;2022-07-23T10:43:21;9.75;;;5.28;;
70420;SDS011;57848;51.938;15.520;2022-07-23T10:45:46;10.93;;;5.93;;
70420;SDS011;57848;51.938;15.520;2022-07-23T10:51:07;9.70;;;5.73;;
70420;SDS011;57848;51.938;15.520;2022-07-23T10:56:15;11.50;;;5.60;;
70420;SDS011;57848;51.938;15.520;2022-07-23T10:58:50;11.73;;;6.27;;
70420;SDS011;57848;51.938;15.520;2022-07-23T11:01:37;10.43;;;6.05;;
70420;SDS011;57848;51.938;15.520;2022-07-23T11:04:04;9.88;;;6.15;;
70420;SDS011;57848;51.938;15.520;2022-07-23T11:12:26;11.23;;;5.53;;
70420;SDS011;57848;51.938;15.520;2022-07-23T11:14:58;10.07;;;5.78;;
70420;SDS011;57848;51.938;15.520;2022-07-23T11:17:39;9.90;;;5.60;;
70420;SDS011;57848;51.938;15.520;2022-07-23T11:20:24;9.25;;;5.35;;
70420;SDS011;57848;51.938;15.520;2022-07-23T11:22:56;10.20;;;5.30;;
70420;SDS011;57848;51.938;15.520;2022-07-23T11:28:13;18.83;;;13.50;;
70420;SDS011;57848;51.938;15.520;2022-07-23T11:30:44;9.20;;;5.10;;
70420;SDS011;57848;51.938;15.520;2022-07-23T11:35:36;9.53;;;5.47;;
70420;SDS011;57848;51.938;15.520;2022-07-23T11:38:24;9.13;;;5.05;;
70420;SDS011;57848;51.938;15.520;2022-07-23T11:40:50;7.97;;;4.68;;
70420;SDS011;57848;51.938;15.520;2022-07-23T11:43:17;10.77;;;4.78;;
70420;SDS011;57848;51.938;15.520;2022-07-23T11:45:43;8.77;;;5.00;;
70420;SDS011;57848;51.938;15.520;2022-07-23T11:48:20;11.10;;;5.43;;
70420;SDS011;57848;51.938;15.520;2022-07-23T11:50:47;12.02;;;5.13;;
70420;SDS011;57848;51.938;15.520;2022-07-23T11:53:16;10.18;;;4.70;;
70420;SDS011;57848;51.938;15.520;2022-07-23T11:55:46;7.97;;;4.80;;
70420;SDS011;57848;51.938;15.520;2022-07-23T11:58:12;7.90;;;4.33;;
70420;SDS011;57848;51.938;15.520;2022-07-23T12:00:39;9.13;;;4.97;;
70420;SDS011;57848;51.938;15.520;2022-07-23T12:03:05;8.43;;;4.78;;
70420;SDS011;57848;51.938;15.520;2022-07-23T12:05:32;8.03;;;4.57;;
70420;SDS011;57848;51.938;15.520;2022-07-23T12:07:59;8.52;;;4.78;;
70420;SDS011;57848;51.938;15.520;2022-07-23T12:10:27;7.70;;;4.60;;
70420;SDS011;57848;51.938;15.520;2022-07-23T12:12:59;10.57;;;5.47;;
70420;SDS011;57848;51.938;15.520;2022-07-23T12:15:27;9.38;;;5.53;;
70420;SDS011;57848;51.938;15.520;2022-07-23T12:17:58;10.75;;;5.03;;
70420;SDS011;57848;51.938;15.520;2022-07-23T12:20:28;10.23;;;5.30;;
70420;SDS011;57848;51.938;15.520;2022-07-23T12:22:56;10.05;;;4.70;;
70420;SDS011;57848;51.938;15.520;2022-07-23T12:25:25;10.03;;;5.10;;
70420;SDS011;57848;51.938;15.520;2022-07-23T12:30:31;8.55;;;4.88;;
70420;SDS011;57848;51.938;15.520;2022-07-23T12:35:48;8.47;;;4.77;;
70420;SDS011;57848;51.938;15.520;2022-07-23T12:38:15;8.57;;;5.10;;
70420;SDS011;57848;51.938;15.520;2022-07-23T12:40:52;7.80;;;4.65;;
70420;SDS011;57848;51.938;15.520;2022-07-23T12:43:23;7.93;;;4.50;;
70420;SDS011;57848;51.938;15.520;2022-07-23T12:45:54;10.95;;;4.95;;
70420;SDS011;57848;51.938;15.520;2022-07-23T12:48:24;8.93;;;4.80;;
70420;SDS011;57848;51.938;15.520;2022-07-23T12:50:53;9.40;;;5.18;;
70420;SDS011;57848;51.938;15.520;2022-07-23T12:53:30;11.90;;;5.50;;
70420;SDS011;57848;51.938;15.520;2022-07-23T12:56:00;9.75;;;4.68;;
70420;SDS011;57848;51.938;15.520;2022-07-23T13:03:56;9.63;;;5.22;;
70420;SDS011;57848;51.938;15.520;2022-07-23T13:06:23;9.20;;;5.65;;
70420;SDS011;57848;51.938;15.520;2022-07-23T13:08:48;9.53;;;5.33;;
70420;SDS011;57848;51.938;15.520;2022-07-23T13:11:13;8.70;;;5.07;;
70420;SDS011;57848;51.938;15.520;2022-07-23T13:13:39;9.30;;;4.80;;
70420;SDS011;57848;51.938;15.520;2022-07-23T13:16:04;10.20;;;4.93;;
70420;SDS011;57848;51.938;15.520;2022-07-23T13:18:30;9.47;;;5.07;;
70420;SDS011;57848;51.938;15.520;2022-07-23T13:20:56;8.77;;;4.97;;
70420;SDS011;57848;51.938;15.520;2022-07-23T13:23:22;10.88;;;5.40;;
70420;SDS011;57848;51.938;15.520;2022-07-23T13:25:47;12.23;;;5.33;;
70420;SDS011;57848;51.938;15.520;2022-07-23T13:28:13;10.50;;;5.85;;
70420;SDS011;57848;51.938;15.520;2022-07-23T13:30:40;10.17;;;5.37;;
70420;SDS011;57848;51.938;15.520;2022-07-23T13:33:06;10.32;;;5.43;;
70420;SDS011;57848;51.938;15.520;2022-07-23T13:35:31;11.70;;;5.17;;
70420;SDS011;57848;51.938;15.520;2022-07-23T13:37:58;9.95;;;5.45;;
70420;SDS011;57848;51.938;15.520;2022-07-23T13:40:23;9.60;;;5.53;;
70420;SDS011;57848;51.938;15.520;2022-07-23T13:42:49;10.03;;;4.60;;
70420;SDS011;57848;51.938;15.520;2022-07-23T13:45:14;9.55;;;4.75;;
70420;SDS011;57848;51.938;15.520;2022-07-23T13:47:40;10.83;;;5.33;;
70420;SDS011;57848;51.938;15.520;2022-07-23T13:50:05;22.77;;;11.57;;
70420;SDS011;57848;51.938;15.520;2022-07-23T13:52:31;12.85;;;6.75;;
70420;SDS011;57848;51.938;15.520;2022-07-23T13:54:59;10.13;;;4.22;;
70420;SDS011;57848;51.938;15.520;2022-07-23T13:57:26;13.40;;;4.97;;
70420;SDS011;57848;51.938;15.520;2022-07-23T13:59:51;13.23;;;3.93;;
70420;SDS011;57848;51.938;15.520;2022-07-23T14:02:17;8.90;;;4.23;;
70420;SDS011;57848;51.938;15.520;2022-07-23T14:04:43;7.90;;;4.28;;
70420;SDS011;57848;51.938;15.520;2022-07-23T14:07:09;8.70;;;4.10;;
70420;SDS011;57848;51.938;15.520;2022-07-23T14:09:34;7.30;;;3.70;;
70420;SDS011;57848;51.938;15.520;2022-07-23T14:12:00;8.95;;;4.28;;
70420;SDS011;57848;51.938;15.520;2022-07-23T14:14:26;7.83;;;4.00;;
70420;SDS011;57848;51.938;15.520;2022-07-23T14:16:51;9.77;;;4.33;;
70420;SDS011;57848;51.938;15.520;2022-07-23T14:19:16;8.03;;;4.03;;
70420;SDS011;57848;51.938;15.520;2022-07-23T14:21:42;7.67;;;4.30;;
70420;SDS011;57848;51.938;15.520;2022-07-23T14:24:08;8.38;;;4.25;;
70420;SDS011;57848;51.938;15.520;2022-07-23T14:26:33;8.50;;;3.87;;
70420;SDS011;57848;51.938;15.520;2022-07-23T14:28:58;7.82;;;3.75;;
70420;SDS011;57848;51.938;15.520;2022-07-23T14:31:24;10.10;;;4.17;;
70420;SDS011;57848;51.938;15.520;2022-07-23T14:33:49;8.57;;;3.90;;
70420;SDS011;57848;51.938;15.520;2022-07-23T14:36:14;9.83;;;4.00;;
70420;SDS011;57848;51.938;15.520;2022-07-23T14:38:40;9.38;;;4.40;;
70420;SDS011;57848;51.938;15.520;2022-07-23T14:41:06;8.40;;;4.00;;
70420;SDS011;57848;51.938;15.520;2022-07-23T14:43:33;7.90;;;4.10;;
70420;SDS011;57848;51.938;15.520;2022-07-23T14:45:58;7.65;;;3.90;;
70420;SDS011;57848;51.938;15.520;2022-07-23T14:48:24;9.27;;;4.10;;
70420;SDS011;57848;51.938;15.520;2022-07-23T14:50:50;10.68;;;4.07;;
70420;SDS011;57848;51.938;15.520;2022-07-23T14:53:15;10.37;;;4.30;;
70420;SDS011;57848;51.938;15.520;2022-07-23T14:55:40;8.40;;;4.10;;
70420;SDS011;57848;51.938;15.520;2022-07-23T14:58:06;7.93;;;4.10;;
70420;SDS011;57848;51.938;15.520;2022-07-23T15:00:31;7.63;;;3.77;;
70420;SDS011;57848;51.938;15.520;2022-07-23T15:02:56;8.70;;;4.40;;
70420;SDS011;57848;51.938;15.520;2022-07-23T15:05:22;8.80;;;4.00;;